Time;durP1;ratioP1;P1;durP2;ratioP2;P2;SDS_P1;SDS_P2;PMS_P1;PMS_P2;Temp;Humidity;BMP_temperature;BMP_pressure;BME280_temperature;BME280_humidity;BME280_pressure;Samples;Min_cycle;Max_cycle;Signal;HPM_P1;HPM_P2
2022/11/15 00:01:42;;;;;;;28.02;14.73;;;;;;;4.95;100.00;148905.28;1730026;82;21047;-60
2022/11/15 00:04:28;;;;;;;26.70;13.88;;;;;;;4.96;100.00;148907.86;1730053;82;21075;-58
2022/11/15 00:07:13;;;;;;;;;;;;;;;4.94;100.00;148904.02;1732132;82;21110;-59
2022/11/15 00:09:59;;;;;;;36.30;14.68;;;;;;;4.91;100.00;148894.95;1722526;82;20165;-58
2022/11/15 00:12:45;;;;;;;32.63;15.50;;;;;;;4.85;100.00;148882.05;1712890;82;21051;-59
2022/11/15 00:15:30;;;;;;;27.45;15.15;;;;;;;4.84;100.00;148879.47;1726558;82;21035;-59
2022/11/15 00:18:17;;;;;;;27.25;14.83;;;;;;;4.84;100.00;148879.47;1729181;82;21126;-60
2022/11/15 00:21:06;;;;;;;27.62;14.28;;;;;;;4.83;100.00;148876.88;1711013;82;21042;-60
2022/11/15 00:23:51;;;;;;;27.00;13.93;;;;;;;4.84;100.00;142747.11;1704055;82;21491;-59
2022/11/15 00:26:37;;;;;;;26.35;12.63;;;;;;;4.90;100.00;127754.50;1700744;84;21055;-58
2022/11/15 00:29:22;;;;;;;28.38;13.15;;;;;;;4.94;100.00;121086.48;1705607;83;21038;-59
2022/11/15 00:32:08;;;;;;;25.45;13.10;;;;;;;4.98;100.00;116479.56;1707036;82;21158;-59
2022/11/15 00:34:53;;;;;;;;;;;;;;;4.98;100.00;113235.33;1708101;83;21083;-59
2022/11/15 00:37:40;;;;;;;27.27;12.95;;;;;;;5.00;100.00;110338.98;1707176;82;20206;-60
2022/11/15 00:40:25;;;;;;;25.12;13.55;;;;;;;4.97;100.00;112039.85;1704570;82;21587;-61
2022/11/15 00:43:11;;;;;;;26.57;12.90;;;;;;;4.95;100.00;111693.77;1702035;82;21609;-59
2022/11/15 00:45:56;;;;;;;;;;;;;;;4.94;100.00;110839.01;1708019;82;21151;-59
2022/11/15 00:48:43;;;;;;;23.47;12.20;;;;;;;4.91;100.00;111685.99;1705137;82;20166;-59
2022/11/15 00:51:31;;;;;;;;;;;;;;;4.86;100.00;113725.57;1708733;82;21050;-58
2022/11/15 00:54:17;;;;;;;29.07;13.15;;;;;;;4.83;100.00;114401.30;1703138;82;20177;-59
2022/11/15 00:57:02;;;;;;;25.40;13.08;;;;;;;4.79;100.00;115930.77;1705091;82;21512;-60
2022/11/15 00:59:47;;;;;;;25.32;12.93;;;;;;;4.77;100.00;114218.69;1706089;82;21312;-59
2022/11/15 01:02:33;;;;;;;24.45;12.15;;;;;;;4.75;100.00;111315.75;1706921;82;21500;-60
2022/11/15 01:05:18;;;;;;;;;;;;;;;4.74;100.00;109268.27;1686907;82;21233;-59
2022/11/15 01:08:04;;;;;;;26.60;13.17;;;;;;;4.76;100.00;103312.58;1702709;83;20861;-60
2022/11/15 01:10:49;;;;;;;24.92;12.50;;;;;;;4.79;100.00;97537.30;1677657;84;21142;-59
2022/11/15 01:13:35;;;;;;;;;;;;;;;4.79;100.00;96689.00;1709237;83;21226;-60
2022/11/15 01:16:20;;;;;;;26.17;13.40;;;;;;;4.77;100.00;96005.61;1705007;83;20244;-60
2022/11/15 01:19:05;;;;;;;;;;;;;;;4.75;100.00;96002.26;1701740;83;21107;-59
2022/11/15 01:21:51;;;;;;;29.30;12.80;;;;;;;4.70;100.00;98372.05;1698676;83;20365;-59
2022/11/15 01:24:37;;;;;;;22.48;13.10;;;;;;;4.66;100.00;99044.67;1726170;82;21087;-60
2022/11/15 01:27:22;;;;;;;30.05;13.40;;;;;;;4.62;100.00;98528.16;1721439;82;21583;-59
2022/11/15 01:30:09;;;;;;;;;;;;;;;4.59;100.00;98184.16;1703801;83;21110;-59
2022/11/15 01:32:54;;;;;;;24.82;12.45;;;;;;;4.54;100.00;99705.15;1701138;82;26504;-60
2022/11/15 01:35:40;;;;;;;29.48;13.25;;;;;;;4.47;100.00;101052.17;1701203;82;26523;-61
2022/11/15 01:38:25;;;;;;;27.50;14.30;;;;;;;4.42;100.00;102573.00;1703148;83;21055;-59
2022/11/15 01:41:18;;;;;;;27.32;13.93;;;;;;;4.36;100.00;102393.16;1724870;82;21245;-59
2022/11/15 01:44:38;;;;;;;27.07;14.18;;;;;;;4.35;100.00;99842.74;1721611;81;21019;-59
2022/11/15 01:47:36;;;;;;;29.37;13.93;;;;;;;4.34;100.00;96105.62;1701535;82;21059;-58
2022/11/15 01:50:27;;;;;;;33.13;13.88;;;;;;;4.33;100.00;92542.97;1701881;82;21074;-61
2022/11/15 01:53:13;;;;;;;35.80;14.58;;;;;;;4.30;100.00;89659.78;1701836;83;21063;-59
2022/11/15 01:55:58;;;;;;;35.63;14.20;;;;;;;4.29;100.00;88303.05;1701991;83;21146;-59
2022/11/15 01:58:43;;;;;;;32.17;15.05;;;;;;;4.24;100.00;89650.36;1701984;83;21130;-60
2022/11/15 02:01:29;;;;;;;;;;;;;;;4.16;100.00;92517.83;1704413;82;21054;-59
2022/11/15 02:04:31;;;;;;;28.07;13.72;;;;;;;4.10;100.00;95049.55;1707088;82;20432;-59
2022/11/15 02:07:18;;;;;;;26.35;13.05;;;;;;;4.07;100.00;94366.45;1707063;82;21015;-60
2022/11/15 02:10:10;;;;;;;28.77;13.75;;;;;;;4.13;100.00;84389.16;1707728;82;21186;-59
2022/11/15 02:12:55;;;;;;;29.10;14.40;;;;;;;4.24;100.00;72254.48;1711109;82;21050;-60
2022/11/15 02:15:55;;;;;;;34.63;15.38;;;;;;;4.28;100.00;68891.72;1721236;82;21047;-59
2022/11/15 02:18:52;;;;;;;29.37;15.78;;;;;;;4.28;100.00;68555.11;1721276;82;21145;-60
2022/11/15 02:22:08;;;;;;;34.75;14.60;;;;;;;4.26;100.00;69730.91;1706201;82;21618;-59
2022/11/15 02:25:23;;;;;;;29.00;15.25;;;;;;;4.17;100.00;75447.51;1701437;82;21342;-59
2022/11/15 02:28:23;;;;;;;31.95;15.38;;;;;;;4.07;100.00;79651.84;1729687;82;21513;-60
2022/11/15 02:31:36;;;;;;;37.17;16.32;;;;;;;3.98;100.00;82510.01;1726921;82;21051;-59
2022/11/15 02:34:56;;;;;;;29.27;14.60;;;;;;;3.92;100.00;82501.31;1706962;82;21549;-59
2022/11/15 02:38:14;;;;;;;38.28;16.55;;;;;;;3.83;100.00;84515.11;1705788;82;21126;-58
2022/11/15 02:41:13;;;;;;;33.98;16.75;;;;;;;3.77;100.00;83154.97;1705351;82;21253;-59
2022/11/15 02:44:05;;;;;;;34.35;16.90;;;;;;;3.70;100.00;83652.80;1706927;82;21601;-59
2022/11/15 02:47:13;;;;;;;36.70;16.17;;;;;;;3.61;100.00;84821.73;1706107;82;21130;-58
2022/11/15 02:50:06;;;;;;;42.03;16.50;;;;;;;3.55;100.00;85151.38;1703197;83;21034;-59
2022/11/15 02:52:52;;;;;;;27.42;14.87;;;;;;;3.49;100.00;85648.36;1676890;84;36548;-60
2022/11/15 02:55:42;;;;;;;30.57;14.18;;;;;;;3.47;100.00;81762.54;1705322;83;21517;-60
2022/11/15 02:58:50;;;;;;;33.70;14.30;;;;;;;3.50;100.00;76203.21;1691525;83;21474;-59
2022/11/15 03:01:59;;;;;;;32.75;14.80;;;;;;;3.56;100.00;68302.05;1703504;83;21055;-59
2022/11/15 03:04:56;;;;;;;30.85;16.00;;;;;;;3.64;100.00;61924.29;1702390;82;21059;-59
2022/11/15 03:07:54;;;;;;;30.65;13.98;;;;;;;3.68;100.00;59271.40;1701423;83;21026;-58
2022/11/15 03:10:53;;;;;;;25.72;14.38;;;;;;;3.66;100.00;59138.29;1711177;82;21039;-59
2022/11/15 03:13:55;;;;;;;28.83;14.07;;;;;;;3.64;100.00;59599.36;1725489;82;21031;-59
2022/11/15 03:17:15;;;;;;;29.65;14.93;;;;;;;3.62;100.00;58731.98;1726790;82;21122;-59
2022/11/15 03:20:07;;;;;;;28.10;14.10;;;;;;;3.64;100.00;55894.59;1706534;82;22149;-60
2022/11/15 03:22:53;;;;;;;36.95;15.72;;;;;;;3.66;100.00;52715.54;1702393;82;21111;-59
2022/11/15 03:25:42;;;;;;;32.75;14.20;;;;;;;3.66;100.00;51878.92;1705648;82;23081;-60
2022/11/15 03:28:49;;;;;;;33.45;15.48;;;;;;;3.69;100.00;48537.11;1702610;82;21508;-59
2022/11/15 03:31:48;;;;;;;28.05;14.50;;;;;;;3.77;100.00;44199.71;1703657;82;21058;-60
2022/11/15 03:34:45;;;;;;;29.55;14.07;;;;;;;3.81;100.00;41699.41;1702737;82;21488;-59
2022/11/15 03:37:36;;;;;;;31.42;14.45;;;;;;;3.87;100.00;38368.89;1703993;82;21079;-58
2022/11/15 03:40:26;;;;;;;32.50;14.20;;;;;;;3.93;100.00;36039.36;1706462;83;21150;-59
2022/11/15 03:43:26;;;;;;;31.23;14.87;;;;;;;3.96;100.00;34376.12;1710283;82;21508;-59
2022/11/15 03:46:15;;;;;;;34.35;14.73;;;;;;;3.96;100.00;34709.17;1701830;82;21074;-58
2022/11/15 03:49:08;;;;;;;29.95;14.03;;;;;;;3.95;100.00;35207.82;1707237;82;21058;-59
2022/11/15 03:51:58;;;;;;;35.55;14.90;;;;;;;3.93;100.00;35373.40;1710373;82;21505;-59
2022/11/15 03:54:52;;;;;;;28.30;14.10;;;;;;;3.96;100.00;34376.12;1719306;82;21200;-59
2022/11/15 03:57:37;;;;;;;29.18;14.10;;;;;;;3.97;100.00;33710.75;1729395;82;21058;-57
2022/11/15 04:00:22;;;;;;;26.42;13.08;;;;;;;3.99;100.00;33046.11;1730138;82;21058;-60
2022/11/15 04:03:08;;;;;;;;;;;;;;;4.03;100.00;31050.95;1732397;82;21097;-59
2022/11/15 04:05:52;;;;;;;28.20;12.98;;;;;;;4.07;100.00;29722.53;1729821;82;20500;-60
2022/11/15 04:08:38;;;;;;;26.05;13.38;;;;;;;4.08;100.00;28891.89;1725564;82;21536;-58
2022/11/15 04:11:24;;;;;;;27.32;13.28;;;;;;;4.12;100.00;27564.07;1710465;82;21545;-59
2022/11/15 04:14:09;;;;;;;28.50;14.78;;;;;;;4.17;100.00;26236.84;1706458;82;24769;-59
2022/11/15 04:16:54;;;;;;;36.75;15.23;;;;;;;4.20;100.00;25739.62;1714130;82;21483;-59
2022/11/15 04:25:51;;;;;;;29.48;13.72;;;;;;;4.15;100.00;27232.95;1702188;82;21087;-60
2022/11/15 04:29:34;;;;;;;28.40;15.03;;;;;;;4.18;100.00;26071.18;1706510;82;21070;-59
2022/11/15 04:31:28;;;;;;;30.80;15.13;;;;;;;4.18;100.00;25905.03;1717611;82;21130;-60
2022/11/15 04:34:13;;;;;;;;;;;;;;;4.20;100.00;25241.46;1719508;82;22007;-61
2022/11/15 04:37:14;;;;;;;25.55;13.00;;;;;;;4.23;100.00;23748.06;1723308;82;22328;-61
2022/11/15 04:40:00;;;;;;;27.93;13.60;;;;;;;4.32;100.00;21593.43;1705089;82;21086;-60
2022/11/15 04:42:45;;;;;;;25.27;13.45;;;;;;;4.44;100.00;19275.28;1717479;82;21075;-59
2022/11/15 04:45:31;;;;;;;31.17;13.95;;;;;;;4.54;100.00;17620.41;1708706;82;21070;-60
2022/11/15 04:48:18;;;;;;;23.18;13.08;;;;;;;4.62;100.00;16462.16;1704173;82;21551;-59
2022/11/15 04:51:03;;;;;;;27.20;14.07;;;;;;;4.71;100.00;14973.18;1705418;82;21528;-59
2022/11/15 04:53:48;;;;;;;32.28;14.80;;;;;;;4.81;100.00;13981.87;1730522;81;21055;-59
2022/11/15 04:56:34;;;;;;;26.25;14.25;;;;;;;4.88;100.00;12658.16;1713521;82;21054;-58
2022/11/15 04:59:19;;;;;;;30.97;14.40;;;;;;;4.94;100.00;11997.13;1706544;82;21063;-60
2022/11/15 05:02:05;;;;;;;28.65;14.78;;;;;;;4.99;100.00;11667.01;1705346;82;21077;-59
2022/11/15 05:04:51;;;;;;;29.30;14.85;;;;;;;5.02;100.00;11502.26;1706505;82;21769;-60
2022/11/15 05:07:36;;;;;;;27.65;13.98;;;;;;;5.10;100.00;10841.57;1706536;82;21106;-60
2022/11/15 05:10:21;;;;;;;33.18;15.70;;;;;;;5.15;100.00;10511.52;1716383;82;21055;-59
2022/11/15 05:13:07;;;;;;;32.65;14.78;;;;;;;5.22;100.00;10181.68;1712887;82;21524;-60
2022/11/15 05:15:53;;;;;;;34.20;15.03;;;;;;;5.24;100.00;10347.92;1702935;82;21114;-59
2022/11/15 05:18:42;;;;;;;27.37;14.55;;;;;;;5.29;100.00;10183.34;1703797;82;21220;-59
2022/11/15 05:21:25;;;;;;;33.33;15.32;;;;;;;5.34;100.00;10018.75;1707080;82;22163;-60
2022/11/15 05:24:11;;;;;;;36.68;15.15;;;;;;;5.36;100.00;10350.69;1707979;82;21114;-59
2022/11/15 05:26:56;;;;;;;30.43;14.63;;;;;;;5.39;100.00;10517.11;1729460;82;21023;-60
2022/11/15 05:29:43;;;;;;;33.80;14.43;;;;;;;5.41;100.00;10683.30;1723206;82;21092;-59
2022/11/15 05:32:28;;;;;;;28.12;14.13;;;;;;;5.45;100.00;10352.85;1726011;82;21966;-59
2022/11/15 05:35:34;;;;;;;27.98;13.78;;;;;;;5.51;100.00;10354.05;1725277;82;25315;-60
2022/11/15 05:38:18;;;;;;;30.97;14.80;;;;;;;5.55;100.00;10520.75;1701943;83;21059;-60
2022/11/15 05:41:03;;;;;;;27.05;13.88;;;;;;;5.56;100.00;10686.87;1704920;83;20979;-61
2022/11/15 05:43:49;;;;;;;31.17;14.53;;;;;;;5.58;100.00;11350.35;1707127;82;21122;-61
2022/11/15 05:46:35;;;;;;;;;;;;;;;5.62;100.00;11517.05;1703148;83;21135;-60
2022/11/15 05:49:23;;;;;;;26.75;13.70;;;;;;;5.65;100.00;11683.79;1701771;82;20194;-60
2022/11/15 05:52:08;;;;;;;34.13;14.35;;;;;;;5.68;100.00;11684.58;1715320;82;20995;-60
2022/11/15 05:54:54;;;;;;;32.23;15.08;;;;;;;5.78;100.00;10360.30;1723152;82;20987;-60
2022/11/15 05:57:39;;;;;;;;;;;;;;;5.82;100.00;10527.07;1725305;82;21126;-59
2022/11/15 06:00:24;;;;;;;29.50;14.58;;;;;;;5.82;100.00;11853.86;1728499;82;21153;-59
2022/11/15 06:03:10;;;;;;;34.33;15.20;;;;;;;5.81;100.00;13014.96;1729340;82;21127;-59
2022/11/15 06:05:56;;;;;;;33.20;15.83;;;;;;;5.82;100.00;14177.03;1728917;82;21122;-60
2022/11/15 06:08:41;;;;;;;38.83;15.40;;;;;;;5.85;100.00;14509.97;1723587;82;21526;-59
2022/11/15 06:11:28;;;;;;;29.32;14.95;;;;;;;5.90;100.00;14677.40;1707278;82;21464;-60
2022/11/15 06:14:15;;;;;;;29.48;15.58;;;;;;;5.93;100.00;14844.39;1701388;82;21635;-60
2022/11/15 06:17:02;;;;;;;36.42;16.48;;;;;;;5.95;100.00;15509.52;1702165;83;21039;-60
2022/11/15 06:19:47;;;;;;;30.75;15.55;;;;;;;6.00;100.00;16175.68;1698159;84;21337;-60
2022/11/15 06:22:33;;;;;;;28.90;14.95;;;;;;;6.01;100.00;17006.88;1702441;82;22171;-60
2022/11/15 06:25:19;;;;;;;29.85;15.10;;;;;;;6.06;100.00;17506.93;1706382;83;21078;-64
2022/11/15 06:28:04;;;;;;;;;;;;;;;6.14;100.00;16678.83;1709554;82;21089;-61
2022/11/15 06:30:50;;;;;;;30.92;15.13;;;;;;;6.21;100.00;16348.63;1715683;82;20189;-61
2022/11/15 06:33:36;;;;;;;30.02;15.98;;;;;;;6.24;100.00;17014.60;1723456;82;21078;-60
2022/11/15 06:36:21;;;;;;;31.77;14.68;;;;;;;6.30;100.00;16850.45;1729617;81;21012;-60
2022/11/15 06:39:06;;;;;;;29.30;14.15;;;;;;;6.39;100.00;16354.41;1726903;81;21064;-60
2022/11/15 06:41:52;;;;;;;30.17;14.80;;;;;;;6.50;100.00;16025.59;1722510;82;21311;-60
2022/11/15 06:44:39;;;;;;;32.63;14.55;;;;;;;6.56;100.00;16360.20;1723572;82;21063;-61
2022/11/15 06:47:24;;;;;;;33.05;14.83;;;;;;;6.65;100.00;17194.66;1728897;82;21066;-60
2022/11/15 06:50:11;;;;;;;26.90;14.43;;;;;;;6.70;100.00;17695.61;1717607;82;21440;-61
2022/11/15 06:53:01;;;;;;;31.62;15.20;;;;;;;6.80;100.00;17865.68;1724515;82;21110;-59
2022/11/15 06:55:46;;;;;;;35.43;17.15;;;;;;;6.90;100.00;18035.63;1729017;82;21117;-60
2022/11/15 06:58:34;;;;;;;36.33;17.25;;;;;;;6.96;100.00;19203.31;1726403;82;21089;-60
2022/11/15 07:01:20;;;;;;;28.62;15.40;;;;;;;7.00;100.00;21370.90;1705531;82;21082;-61
2022/11/15 07:04:06;;;;;;;32.13;16.12;;;;;;;7.04;100.00;23206.61;1709301;82;21062;-61
2022/11/15 07:06:52;;;;;;;34.90;17.25;;;;;;;7.11;100.00;24711.28;1710014;82;21153;-59
2022/11/15 07:09:38;;;;;;;33.67;15.95;;;;;;;7.16;100.00;26215.97;1722873;82;21055;-61
2022/11/15 07:12:24;;;;;;;32.85;15.80;;;;;;;7.21;100.00;28222.24;1721196;81;21097;-59
2022/11/15 07:15:10;;;;;;;34.78;18.42;;;;;;;7.26;100.00;30397.73;1708692;82;21503;-61
2022/11/15 07:17:55;;;;;;;46.35;18.40;;;;;;;7.28;100.00;34414.07;1703965;82;21537;-59
2022/11/15 07:20:40;;;;;;;34.27;17.07;;;;;;;7.31;100.00;38101.00;1716831;82;21744;-60
2022/11/15 07:23:25;;;;;;;;;;;;;;;7.34;100.00;40450.33;1714740;82;21292;-60
2022/11/15 07:26:11;;;;;;;29.52;14.55;;;;;;;7.37;100.00;42801.55;1678918;84;20535;-59
2022/11/15 07:28:58;;;;;;;34.63;15.98;;;;;;;7.41;100.00;45155.05;1701191;82;21132;-60
2022/11/15 07:31:44;;;;;;;40.05;17.85;;;;;;;7.47;100.00;45663.96;1703578;83;21579;-60
2022/11/15 07:34:30;;;;;;;32.60;16.75;;;;;;;7.53;100.00;46677.27;1705801;82;21478;-59
2022/11/15 07:37:16;;;;;;;31.50;16.23;;;;;;;7.60;100.00;48700.53;1687506;83;21893;-59
2022/11/15 07:40:03;;;;;;;33.70;16.82;;;;;;;7.66;100.00;51397.87;1667440;84;21403;-60
2022/11/15 07:42:55;;;;;;;29.30;16.27;;;;;;;7.72;100.00;53592.86;1691819;83;20965;-60
2022/11/15 07:45:45;;;;;;;29.85;16.37;;;;;;;7.82;100.00;54950.27;1680123;84;21100;-59
2022/11/15 07:48:31;;;;;;;33.98;16.60;;;;;;;7.88;100.00;60138.86;1685327;83;21116;-60
2022/11/15 07:51:17;;;;;;;34.78;16.93;;;;;;;7.95;100.00;61471.11;1704803;82;21540;-61
2022/11/15 07:54:02;;;;;;;39.03;18.48;;;;;;;8.05;100.00;62230.42;1704918;82;22148;-59
2022/11/15 07:56:48;;;;;;;32.15;16.00;;;;;;;8.13;100.00;64606.29;1702359;82;21147;-60
2022/11/15 07:59:36;;;;;;;30.52;16.17;;;;;;;8.23;100.00;67155.48;1705932;82;21153;-60
2022/11/15 08:02:20;;;;;;;;;;;;;;;8.34;100.00;69030.92;1691303;83;21122;-59
2022/11/15 08:05:07;;;;;;;27.37;14.40;;;;;;;8.43;100.00;73789.27;1705217;82;21140;-61
2022/11/15 08:07:57;;;;;;;32.95;14.78;;;;;;;8.52;100.00;78895.57;1705359;82;20981;-59
2022/11/15 08:10:44;;;;;;;26.30;13.85;;;;;;;8.58;100.00;88946.27;1685970;82;21916;-60
2022/11/15 08:13:29;;;;;;;24.65;13.75;;;;;;;8.65;100.00;95099.00;1705218;82;21046;-59
2022/11/15 08:16:15;;;;;;;31.45;13.38;;;;;;;8.74;100.00;99557.70;1705747;82;21534;-60
2022/11/15 08:19:13;;;;;;;;;;;;;;;;;;;;;
2022/11/15 08:21:50;;;;;;;28.70;13.95;;;;;;;8.94;100.00;116567.71;1707790;82;21046;-60
2022/11/15 08:24:35;;;;;;;;;;;;;;;9.04;100.00;125367.85;1710632;82;21145;-59
2022/11/15 08:27:22;;;;;;;27.75;12.30;;;;;;;9.15;100.00;141981.09;1705211;82;20229;-61
2022/11/15 08:30:08;;;;;;;31.12;12.85;;;;;;;9.24;100.00;149977.08;1705820;82;21126;-62
2022/11/15 08:32:53;;;;;;;30.48;12.05;;;;;;;9.34;100.00;150002.98;1710444;81;21643;-60
2022/11/15 08:35:41;;;;;;;26.35;12.35;;;;;;;9.40;100.00;150017.27;1711974;82;21109;-60
2022/11/15 08:38:28;;;;;;;32.80;12.85;;;;;;;9.47;100.00;150035.41;1701924;82;21048;-60
2022/11/15 08:41:25;;;;;;;32.42;11.75;;;;;;;9.55;100.00;150054.86;1704181;82;21071;-60
2022/11/15 08:44:10;;;;;;;22.50;11.48;;;;;;;9.59;100.00;150065.22;1701411;82;21027;-60
2022/11/15 08:46:56;;;;;;;31.17;10.40;;;;;;;9.63;100.00;150075.64;1704535;82;21133;-61
2022/11/15 08:49:41;;;;;;;17.82;9.05;;;;;;;9.66;100.00;150082.09;1697217;82;21054;-60
2022/11/15 08:52:26;;;;;;;;;;;;;;;9.71;100.00;150095.05;1681096;83;21041;-60
2022/11/15 08:55:12;;;;;;;23.47;8.83;;;;;;;9.76;100.00;150108.06;1702063;82;20208;-61
2022/11/15 08:57:58;;;;;;;16.10;7.25;;;;;;;9.78;100.00;150111.91;1706246;82;21504;-59
2022/11/15 09:00:51;;;;;;;29.18;7.33;;;;;;;9.84;100.00;150128.78;1706004;81;21249;-60
2022/11/15 09:03:39;;;;;;;16.67;7.95;;;;;;;9.93;100.00;150150.84;1697535;82;21068;-61
2022/11/15 09:06:25;;;;;;;16.80;7.08;;;;;;;10.03;100.00;150175.48;1673113;83;21069;-59
2022/11/15 09:09:11;;;;;;;9.95;5.90;;;;;;;10.11;100.00;150196.22;1698927;83;21641;-61
2022/11/15 09:11:57;;;;;;;9.98;5.90;;;;;;;10.18;100.00;150213.09;1698031;83;21170;-61
2022/11/15 09:14:43;;;;;;;11.33;5.60;;;;;;;10.24;100.00;150228.66;1713983;81;21138;-62
2022/11/15 09:17:31;;;;;;;13.75;6.33;;;;;;;10.28;100.00;150239.08;1686214;83;21105;-59
2022/11/15 09:20:17;;;;;;;12.55;6.17;;;;;;;10.36;100.00;150258.50;1711052;81;21521;-62
2022/11/15 09:23:09;;;;;;;;;;;;;;;10.46;100.00;150283.19;1707573;82;21038;-62
2022/11/15 09:26:02;;;;;;;17.55;6.50;;;;;;;10.50;100.00;150293.61;1704346;83;20295;-60
2022/11/15 09:28:48;;;;;;;10.48;6.17;;;;;;;10.57;100.00;150310.44;1709828;82;21600;-61
2022/11/15 09:31:34;;;;;;;11.15;6.10;;;;;;;10.63;100.00;150324.73;1713700;81;21040;-60
2022/11/15 09:34:21;;;;;;;10.10;5.85;;;;;;;10.71;100.00;150345.48;1712343;82;21473;-60
2022/11/15 09:37:07;;;;;;;8.10;4.90;;;;;;;10.77;100.00;150359.77;1708793;82;21567;-60
2022/11/15 09:39:53;;;;;;;9.98;5.10;;;;;;;10.85;100.00;150380.56;1701417;82;21045;-60
2022/11/15 09:43:10;;;;;;;9.50;4.60;;;;;;;10.92;100.00;150397.41;1679246;84;22135;-61
2022/11/15 09:46:17;;;;;;;11.05;4.50;;;;;;;10.92;100.00;150398.72;1703684;82;21050;-60
2022/11/15 09:48:56;;;;;;;8.73;4.90;;;;;;;10.99;100.00;150416.87;1647429;83;21145;-59
2022/11/15 09:51:46;;;;;;;7.20;4.28;;;;;;;11.06;100.00;150433.77;1684007;84;21066;-59
2022/11/15 09:54:29;;;;;;;28.15;15.13;;;;;;;11.10;100.00;150442.86;1705001;83;21663;-60
2022/11/15 09:57:09;;;;;;;15.75;8.40;;;;;;;11.14;100.00;150453.23;1706976;82;21099;-62
2022/11/15 10:00:02;;;;;;;21.87;7.67;;;;;;;11.18;100.00;150464.94;1706216;82;21128;-61
2022/11/15 10:03:09;;;;;;;17.02;9.45;;;;;;;11.25;100.00;150480.50;1706714;82;21579;-60
2022/11/15 10:05:44;;;;;;;17.73;8.28;;;;;;;11.32;100.00;150499.98;1707895;82;21144;-61
2022/11/15 10:08:29;;;;;;;10.55;5.78;;;;;;;11.39;100.00;150516.88;1702132;82;21076;-61
2022/11/15 10:11:03;;;;;;;9.60;5.15;;;;;;;11.48;100.00;150537.63;1705810;83;21237;-61
2022/11/15 10:13:35;;;;;;;10.48;4.92;;;;;;;11.55;100.00;150555.80;1693838;83;21408;-61
2022/11/15 10:16:29;;;;;;;7.25;4.10;;;;;;;11.61;98.97;150571.41;1704220;82;21037;-60
2022/11/15 10:19:32;;;;;;;7.15;4.22;;;;;;;11.65;97.37;150580.47;1697252;83;21072;-60
2022/11/15 10:22:30;;;;;;;9.63;3.65;;;;;;;11.69;95.59;150592.17;1707156;82;21079;-61
2022/11/15 10:25:12;;;;;;;6.45;3.77;;;;;;;11.77;94.31;150610.34;1673842;84;22032;-61
2022/11/15 10:27:41;;;;;;;6.80;3.87;;;;;;;11.86;91.09;150633.75;1709864;82;20963;-59
2022/11/15 10:30:14;;;;;;;9.75;3.52;;;;;;;11.96;90.12;150659.70;1713532;82;20945;-61
2022/11/15 10:32:43;;;;;;;7.92;3.37;;;;;;;12.01;87.86;150672.73;1682004;84;20934;-61
2022/11/15 10:35:24;;;;;;;6.10;3.15;;;;;;;12.02;86.12;150674.06;1709689;82;21028;-62
2022/11/15 10:37:52;;;;;;;4.72;3.10;;;;;;;12.03;84.01;150677.92;1707085;82;21845;-63
2022/11/15 10:40:24;;;;;;;8.68;3.10;;;;;;;12.05;83.54;150681.84;1706091;83;21511;-61
2022/11/15 10:43:12;;;;;;;8.00;2.83;;;;;;;12.09;82.29;150692.22;1702982;82;21048;-62
2022/11/15 10:45:39;;;;;;;5.40;2.95;;;;;;;12.09;81.54;150690.95;1698682;83;21522;-64
2022/11/15 10:48:20;;;;;;;8.60;3.33;;;;;;;12.04;79.41;150680.53;1697162;83;21318;-61
2022/11/15 10:50:48;;;;;;;6.72;3.65;;;;;;;11.99;79.07;150666.22;1701616;83;21142;-62
2022/11/15 10:53:30;;;;;;;7.53;3.25;;;;;;;11.95;78.62;150657.11;1660049;85;21118;-61
2022/11/15 10:56:06;;;;;;;5.80;2.70;;;;;;;11.91;78.59;150646.73;1675238;83;21051;-62
2022/11/15 10:58:47;;;;;;;6.37;3.15;;;;;;;11.87;78.25;150637.63;1704902;83;21480;-61
2022/11/15 11:01:25;;;;;;;5.00;3.35;;;;;;;11.88;77.56;150640.22;1683881;84;21520;-61
2022/11/15 11:04:07;;;;;;;5.90;3.35;;;;;;;11.91;77.74;150646.73;1709417;82;21892;-60
2022/11/15 11:06:56;;;;;;;5.45;3.20;;;;;;;11.93;77.26;150651.92;1716519;82;20987;-61
2022/11/15 11:09:35;;;;;;;7.30;3.45;;;;;;;11.92;77.51;150649.33;1714016;82;21003;-61
2022/11/15 11:12:06;;;;;;;9.58;3.70;;;;;;;11.89;77.69;150641.53;1709935;81;21519;-60
2022/11/15 11:14:36;;;;;;;6.17;3.50;;;;;;;11.88;77.97;150638.94;1723048;82;20987;-61
2022/11/15 11:17:15;;;;;;;6.45;3.10;;;;;;;11.86;78.21;150633.75;1719206;82;21219;-61
2022/11/15 11:20:04;;;;;;;9.25;4.55;;;;;;;11.85;78.33;150632.44;1726220;82;21500;-61
2022/11/15 11:22:55;;;;;;;10.35;5.20;;;;;;;11.83;78.14;150627.23;1673781;84;21045;-61
2022/11/15 11:25:51;;;;;;;7.30;3.85;;;;;;;11.80;78.32;150619.45;1687953;82;21128;-61
2022/11/15 11:28:30;;;;;;;8.63;3.83;;;;;;;11.78;78.01;150612.94;1693059;82;21045;-62
2022/11/15 11:31:27;;;;;;;6.95;3.15;;;;;;;11.78;77.36;150612.94;1681254;84;21440;-62
2022/11/15 11:34:33;;;;;;;10.00;4.15;;;;;;;11.82;76.80;150623.31;1710453;82;21066;-61
2022/11/15 11:37:38;;;;;;;7.22;3.77;;;;;;;11.83;75.94;150625.97;1686232;83;21557;-63
2022/11/15 11:40:12;;;;;;;;;;;;;;;11.81;74.78;150620.72;1654770;84;21015;-63
2022/11/15 11:43:01;;;;;;;7.40;3.40;;;;;;;11.77;74.48;150610.34;1704816;82;20205;-61
2022/11/15 11:45:49;;;;;;;8.58;3.70;;;;;;;11.75;74.58;150607.75;1694913;84;21204;-61
2022/11/15 11:48:42;;;;;;;6.92;3.65;;;;;;;11.73;75.00;150602.56;1704716;83;21042;-61
2022/11/15 11:51:38;;;;;;;5.67;3.02;;;;;;;11.69;75.47;150592.17;1640228;84;21627;-61
2022/11/15 11:54:14;;;;;;;5.83;3.05;;;;;;;11.71;75.06;150596.05;1681495;82;21126;-61
2022/11/15 11:56:43;;;;;;;10.05;3.20;;;;;;;11.73;74.29;150602.56;1709164;82;21054;-59
2022/11/15 11:59:16;;;;;;;7.58;3.00;;;;;;;11.75;73.73;150607.75;1704299;82;22022;-61
2022/11/15 12:01:46;;;;;;;7.55;3.15;;;;;;;11.77;72.73;150610.34;1711326;82;21603;-59
2022/11/15 12:04:33;;;;;;;9.30;3.35;;;;;;;11.75;72.58;150607.75;1701364;82;21711;-59
2022/11/15 12:07:18;;;;;;;8.98;4.00;;;;;;;11.80;72.70;150618.12;1707870;82;21113;-61
2022/11/15 12:10:05;;;;;;;6.57;4.23;;;;;;;11.82;72.25;150623.31;1711587;82;21567;-60
2022/11/15 12:12:37;;;;;;;8.50;4.08;;;;;;;11.82;71.61;150623.31;1702493;82;22361;-60
2022/11/15 12:15:15;;;;;;;8.60;4.10;;;;;;;11.80;71.55;150619.45;1704150;82;21092;-60
2022/11/15 12:17:44;;;;;;;10.35;5.15;;;;;;;11.79;71.42;150615.53;1705606;82;21091;-61
2022/11/15 12:20:24;;;;;;;14.15;6.03;;;;;;;11.77;71.27;150611.66;1677026;84;21530;-62
2022/11/15 12:23:18;;;;;;;14.78;6.47;;;;;;;11.74;71.22;150605.16;1716171;82;21078;-61
2022/11/15 12:25:54;;;;;;;14.10;4.83;;;;;;;11.70;71.52;150594.78;1713479;82;21038;-60
2022/11/15 12:28:53;;;;;;;7.95;3.52;;;;;;;11.71;71.82;150596.05;1707393;82;21063;-61
2022/11/15 12:31:43;;;;;;;7.25;3.02;;;;;;;11.68;72.36;150589.58;1706758;82;21100;-61
2022/11/15 12:34:30;;;;;;;6.60;2.80;;;;;;;11.63;73.66;150576.61;1705612;82;21726;-62
2022/11/15 12:37:00;;;;;;;7.72;2.90;;;;;;;11.58;75.67;150564.91;1701805;82;21079;-61
2022/11/15 12:40:09;;;;;;;6.97;3.25;;;;;;;11.53;78.33;150550.61;1712110;82;21231;-62
2022/11/15 12:43:11;;;;;;;5.75;2.80;;;;;;;11.49;80.64;150540.22;1709737;82;21077;-62
2022/11/15 12:45:42;;;;;;;8.28;3.05;;;;;;;11.47;82.41;150536.31;1709068;82;21160;-59
2022/11/15 12:48:21;;;;;;;9.13;3.33;;;;;;;11.40;84.49;150519.47;1711286;81;21393;-59
2022/11/15 12:50:55;;;;;;;6.83;3.05;;;;;;;11.35;86.00;150506.44;1701933;82;21475;-60
2022/11/15 12:53:28;;;;;;;5.20;3.10;;;;;;;11.31;86.72;150496.06;1708666;82;21203;-62
2022/11/15 12:56:16;;;;;;;6.22;3.15;;;;;;;11.31;87.78;150496.06;1709354;82;21324;-61
2022/11/15 12:58:54;;;;;;;6.78;3.33;;;;;;;11.26;88.32;150483.09;1704415;82;20915;-63
2022/11/15 13:01:39;;;;;;;7.45;3.37;;;;;;;11.20;88.79;150467.53;1703969;82;21033;-62
2022/11/15 13:04:24;;;;;;;6.35;2.95;;;;;;;11.15;89.22;150457.11;1702373;82;21105;-62